Tindouf Airport

About
Name: Tindouf Airport
Identifier:  TIN/DAOF
Serves:  Tindouf
Public/Private:  joint public/military
Local Time:  17. Jul 12:23 CET
Description: Tindouf Airport is an airport in Tindouf, Algeria.
Source: Wikipedia
Location
Tindouf
  Algeria

Runways
Identifier Length (m/ft) Surface
08R/26L 9,800/9,800 Asphalt
08L/26R 9,750/9,750 Asphalt
Flights per Day
2 flights
Distance: 1,396km (867mi)
Punctuality
50% (1 flights per day delayed)
Delay Average: 6 minutes
Current Weather
 41 C (Humidity: 9%)
  12kt (22km/h / 13mph) from 290°
  Scattered clouds at 4,600 feet (1,402 meter)
  9km (5 mi.)
 METAR DAOF 171100Z 29012KT 9000 SCT046 41/02 Q1011

Current Flights

Departures
Number Departure To Airline
 AH6393 00:45  Oran  Air Algérie
Arrivals
Number Arrival From Airline
 AH6392 23:45  Oran  Air Algérie

Current Delays

Departures
N/A
Arrivals
N/A

Destinations

Top Destinations
Airport Flights
per week
Seats
per week
  Algiers (ALG) 10 1,295 1 185
  Bechar (CBH) 3 198 0 28
  Oran (ORN) 3 556 0 79
  Constantine (CZL) 1 280 0 40

Airlines & Planes

Top Airlines
Airline Flights
per Day
Seats
per Day
  Air Algérie 2 332
Top Plane Types
Model Flights Seats
Boeing B737-800 1.9/day 295/day 295.6333333333333
Boeing B737-700 0.5/day - 0
Boeing B737-600 0.3/day 37/day 37.2